createdAt,value
2022-09-17T00:04:41.167Z,2.45
2022-09-17T00:09:42.787Z,1.80
2022-09-17T00:14:44.290Z,2.95
2022-09-17T00:19:45.681Z,2.92
2022-09-17T00:24:47.107Z,4.95
2022-09-17T00:29:48.877Z,2.65
2022-09-17T00:34:52.219Z,1.98
2022-09-17T00:39:53.643Z,5.25
2022-09-17T00:44:57.230Z,2.67
2022-09-17T00:50:19.944Z,2.75
2022-09-17T00:55:31.680Z,6.60
2022-09-17T01:00:33.188Z,4.15
2022-09-17T01:05:45.889Z,2.85
2022-09-17T01:11:10.852Z,2.88
2022-09-17T01:16:41.218Z,3.70
2022-09-17T01:22:10.152Z,2.20
2022-09-17T01:27:20.472Z,1.50
2022-09-17T01:32:45.643Z,2.50
2022-09-17T01:38:24.140Z,8.10
2022-09-17T01:43:55.692Z,3.28
2022-09-17T01:49:01.480Z,3.17
2022-09-17T01:54:11.288Z,3.00
2022-09-17T01:59:24.893Z,2.33
2022-09-17T02:04:31.609Z,2.10
2022-09-17T02:09:39.640Z,2.72
2022-09-17T02:14:50.522Z,3.67
2022-09-17T02:19:53.704Z,2.60
2022-09-17T02:25:08.418Z,1.98
2022-09-17T02:30:10.316Z,1.92
2022-09-17T02:35:13.932Z,4.50
2022-09-17T02:40:18.205Z,2.63
2022-09-17T02:45:26.397Z,1.80
2022-09-17T02:50:50.187Z,4.35
2022-09-17T02:56:14.169Z,1.50
2022-09-17T03:01:25.529Z,5.22
2022-09-17T03:06:27.406Z,3.45
2022-09-17T03:11:28.937Z,4.88
2022-09-17T03:16:30.477Z,4.03
2022-09-17T03:21:31.960Z,2.97
2022-09-17T03:26:33.396Z,2.72
2022-09-17T03:31:34.853Z,5.78
2022-09-17T03:36:36.340Z,3.67
2022-09-17T03:41:37.938Z,2.72
2022-09-17T03:46:39.453Z,2.88
2022-09-17T03:51:41.188Z,5.10
2022-09-17T03:56:42.632Z,1.58
2022-09-17T04:01:44.147Z,2.33
2022-09-17T04:06:45.639Z,2.30
2022-09-17T04:11:47.047Z,4.57
2022-09-17T04:16:48.482Z,2.33
2022-09-17T04:21:49.880Z,2.30
2022-09-17T04:26:51.329Z,3.05
2022-09-17T04:31:53.100Z,3.45
2022-09-17T04:36:54.490Z,3.25
2022-09-17T04:41:55.982Z,3.95
2022-09-17T04:46:57.455Z,4.10
2022-09-17T04:51:58.916Z,3.90
2022-09-17T04:57:00.749Z,2.40
2022-09-17T05:02:02.239Z,1.92
2022-09-17T05:07:03.838Z,3.70
2022-09-17T05:12:05.366Z,3.08
2022-09-17T05:17:06.759Z,3.50
2022-09-17T05:22:08.168Z,3.17
2022-09-17T05:27:09.594Z,1.90
2022-09-17T05:32:11.005Z,2.63
2022-09-17T05:37:12.678Z,5.30
2022-09-17T05:42:14.073Z,3.28
2022-09-17T05:47:15.499Z,2.47
2022-09-17T05:52:16.894Z,3.83
2022-09-17T05:57:18.348Z,2.25
2022-09-17T06:02:19.820Z,3.10
2022-09-17T06:07:21.283Z,4.53
2022-09-17T06:12:23.461Z,2.17
2022-09-17T06:17:24.853Z,3.72
2022-09-17T06:22:26.362Z,3.55
2022-09-17T06:27:36.680Z,3.72
2022-09-17T06:32:38.109Z,2.85
2022-09-17T06:37:40.853Z,4.80
2022-09-17T06:42:42.557Z,5.75
2022-09-17T06:47:44.010Z,4.25
2022-09-17T06:52:53.587Z,2.83
2022-09-17T06:57:59.166Z,3.03
2022-09-17T07:03:01.207Z,2.75
2022-09-17T07:08:03.349Z,3.72
2022-09-17T07:13:04.900Z,2.88
2022-09-17T07:18:11.538Z,4.50
2022-09-17T07:23:12.935Z,3.38
2022-09-17T07:28:14.380Z,5.88
2022-09-17T07:33:16.782Z,6.25
2022-09-17T07:38:18.245Z,3.05
2022-09-17T07:43:20.068Z,3.22
2022-09-17T07:48:21.617Z,2.38
2022-09-17T07:53:23.100Z,5.72
2022-09-17T07:58:30.066Z,3.38
2022-09-17T08:03:31.499Z,5.88
2022-09-17T08:08:34.142Z,5.00
2022-09-17T08:13:36.506Z,4.05
2022-09-17T08:18:37.932Z,3.90
2022-09-17T08:23:41.461Z,3.45
2022-09-17T08:28:48.036Z,3.72
2022-09-17T08:33:49.668Z,3.58
2022-09-17T08:38:54.186Z,5.43
2022-09-17T08:44:07.771Z,3.88
2022-09-17T08:49:35.810Z,2.25
2022-09-17T08:55:21.839Z,5.30
2022-09-17T09:00:24.492Z,4.10
2022-09-17T09:05:42.826Z,2.53
2022-09-17T09:10:54.129Z,3.95
2022-09-17T09:16:01.055Z,2.65
2022-09-17T09:21:26.908Z,6.10
2022-09-17T09:26:50.321Z,8.50
2022-09-17T09:32:27.543Z,3.35
2022-09-17T09:37:35.363Z,3.08
2022-09-17T09:42:39.708Z,4.32
2022-09-17T09:48:00.918Z,4.15
2022-09-17T09:53:19.152Z,2.80
2022-09-17T09:58:31.071Z,3.37
2022-09-17T10:03:36.203Z,4.57
2022-09-17T10:08:40.244Z,4.30
2022-09-17T10:13:41.693Z,3.38
2022-09-17T10:18:43.716Z,3.17
2022-09-17T10:23:45.951Z,3.47
2022-09-17T10:29:00.435Z,3.83
2022-09-17T10:34:02.673Z,3.10
2022-09-17T10:39:26.056Z,3.67
2022-09-17T10:44:33.707Z,3.15
2022-09-17T10:50:06.404Z,2.75
2022-09-17T10:55:43.993Z,2.50
2022-09-17T11:00:57.229Z,1.67
2022-09-17T11:06:01.461Z,2.15
2022-09-17T11:11:11.243Z,3.10
2022-09-17T11:16:31.456Z,2.60
2022-09-17T11:21:41.773Z,2.00
2022-09-17T11:26:48.737Z,4.53
2022-09-17T11:32:02.213Z,2.92
2022-09-17T11:37:18.406Z,2.78
2022-09-17T11:42:24.805Z,2.47
2022-09-17T11:47:33.657Z,5.32
2022-09-17T11:57:42.358Z,3.15
2022-09-17T12:02:52.682Z,3.58
2022-09-17T12:08:19.637Z,1.65
2022-09-17T12:13:30.009Z,2.22
2022-09-17T12:18:43.341Z,1.95
2022-09-17T12:23:52.052Z,1.92
2022-09-17T12:29:30.860Z,2.28
2022-09-17T12:40:15.244Z,2.30
2022-09-17T12:45:25.567Z,1.73
2022-09-17T12:50:50.285Z,2.67
2022-09-17T12:56:03.571Z,1.48
2022-09-17T13:01:31.330Z,3.97
2022-09-17T13:06:42.616Z,1.00
2022-09-17T13:12:03.364Z,2.17
2022-09-17T13:17:14.337Z,1.83
2022-09-17T13:22:27.697Z,2.55
2022-09-17T13:27:29.481Z,2.10
2022-09-17T13:32:33.853Z,3.58
2022-09-17T13:37:58.516Z,3.20
2022-09-17T13:43:02.684Z,3.58
2022-09-17T13:48:11.839Z,3.17
2022-09-17T13:53:16.053Z,3.22
2022-09-17T13:58:23.308Z,2.70
2022-09-17T14:03:46.405Z,2.72
2022-09-17T14:08:55.487Z,3.17
2022-09-17T14:13:59.997Z,2.33
2022-09-17T14:19:03.189Z,1.67
2022-09-17T14:24:44.844Z,2.90
2022-09-17T14:29:48.715Z,3.15
2022-09-17T14:34:50.350Z,2.17
2022-09-17T14:39:52.503Z,4.25
2022-09-17T14:45:03.715Z,3.03
2022-09-17T14:50:21.558Z,3.90
2022-09-17T14:55:31.102Z,2.85
2022-09-17T15:00:38.200Z,3.70
2022-09-17T15:05:41.016Z,2.25
2022-09-17T15:10:58.310Z,3.00
2022-09-17T15:16:04.933Z,2.55
2022-09-17T15:21:32.480Z,2.22
2022-09-17T15:26:40.789Z,2.30
2022-09-17T15:31:42.332Z,2.55
2022-09-17T15:37:03.861Z,2.78
2022-09-17T15:42:05.408Z,2.55
2022-09-17T15:47:44.652Z,3.38
2022-09-17T15:52:47.440Z,5.70
2022-09-17T15:57:48.891Z,2.28
2022-09-17T16:02:50.519Z,1.73
2022-09-17T16:07:52.155Z,1.90
2022-09-17T16:12:53.641Z,2.28
2022-09-17T16:17:55.988Z,1.98
2022-09-17T16:22:57.407Z,3.72
2022-09-17T16:28:12.506Z,3.05
2022-09-17T16:33:16.202Z,3.90
2022-09-17T16:38:17.640Z,3.80
2022-09-17T16:43:19.339Z,4.43
2022-09-17T16:48:20.790Z,4.43
2022-09-17T16:53:22.199Z,3.40
2022-09-17T16:58:23.847Z,5.10
2022-09-17T17:03:25.570Z,3.08
2022-09-17T17:08:27.130Z,4.20
2022-09-17T17:13:29.690Z,4.07
2022-09-17T17:18:31.506Z,3.83
2022-09-17T17:23:34.728Z,4.13
2022-09-17T17:28:36.698Z,3.95
2022-09-17T17:33:38.181Z,4.40
2022-09-17T17:38:40.752Z,2.90
2022-09-17T17:43:42.299Z,2.85
2022-09-17T17:48:43.883Z,2.33
2022-09-17T17:53:46.150Z,4.40
2022-09-17T17:58:47.986Z,7.07
2022-09-17T18:03:49.761Z,10.38
2022-09-17T18:08:51.173Z,5.18
2022-09-17T18:13:55.237Z,4.70
2022-09-17T18:18:58.258Z,2.10
2022-09-17T18:23:59.744Z,3.97
2022-09-17T18:29:07.052Z,6.18
2022-09-17T18:34:12.209Z,7.25
2022-09-17T18:44:36.952Z,5.93
2022-09-17T18:49:38.396Z,8.13
2022-09-17T18:54:39.791Z,7.60
2022-09-17T18:59:41.476Z,14.27
2022-09-17T19:04:42.894Z,16.50
2022-09-17T19:09:44.370Z,26.98
2022-09-17T19:14:45.768Z,10.65
2022-09-17T19:19:47.238Z,23.98
2022-09-17T19:24:48.635Z,19.20
2022-09-17T19:29:50.296Z,9.90
2022-09-17T19:34:51.724Z,7.00
2022-09-17T19:39:53.168Z,9.57
2022-09-17T19:44:54.626Z,6.82
2022-09-17T19:49:56.219Z,5.35
2022-09-17T19:54:57.666Z,4.43
2022-09-17T19:59:59.055Z,5.75
2022-09-17T20:05:00.502Z,4.85
2022-09-17T20:10:01.926Z,5.93
2022-09-17T20:15:03.721Z,6.63
2022-09-17T20:20:06.529Z,6.85
2022-09-17T20:25:08.437Z,9.05
2022-09-17T20:30:10.743Z,7.65
2022-09-17T20:35:12.275Z,6.88
2022-09-17T20:40:15.832Z,5.18
2022-09-17T20:45:17.382Z,5.43
2022-09-17T20:50:18.820Z,5.53
2022-09-17T20:55:21.511Z,3.88
2022-09-17T21:00:25.928Z,7.57
2022-09-17T21:05:27.352Z,5.70
2022-09-17T21:10:28.748Z,8.85
2022-09-17T21:15:30.193Z,16.48
2022-09-17T21:20:35.882Z,14.75
2022-09-17T21:25:37.278Z,9.15
2022-09-17T21:30:38.677Z,8.23
2022-09-17T21:35:40.262Z,15.07
2022-09-17T21:40:44.020Z,9.27
2022-09-17T21:45:45.649Z,8.95
2022-09-17T21:50:47.049Z,8.50
2022-09-17T21:55:48.519Z,7.82
2022-09-17T22:00:52.801Z,8.70
2022-09-17T22:05:54.227Z,5.57
2022-09-17T22:11:07.223Z,7.25
2022-09-17T22:16:10.173Z,6.88
2022-09-17T22:21:26.712Z,6.97
2022-09-17T22:26:31.652Z,9.75
2022-09-17T22:31:33.506Z,10.43
2022-09-17T22:36:35.080Z,6.53
2022-09-17T22:41:42.835Z,12.32
2022-09-17T22:46:46.473Z,9.40
2022-09-17T22:51:48.477Z,9.65
2022-09-17T22:56:49.946Z,12.80
2022-09-17T23:01:51.381Z,6.78
2022-09-17T23:06:52.890Z,6.57
2022-09-17T23:11:54.299Z,8.40
2022-09-17T23:16:55.794Z,7.35
2022-09-17T23:21:57.193Z,9.02
2022-09-17T23:26:58.645Z,8.73
2022-09-17T23:32:00.078Z,8.85
2022-09-17T23:37:01.535Z,9.90
2022-09-17T23:42:03.066Z,3.58
2022-09-17T23:47:04.637Z,8.60
2022-09-17T23:52:06.052Z,5.93
2022-09-17T23:57:07.448Z,7.47
